createdAt,value
2023-03-04T00:02:20.431Z,11.68
2023-03-04T00:04:47.100Z,11.67
2023-03-04T00:07:16.769Z,11.65
2023-03-04T00:09:45.486Z,11.63
2023-03-04T00:12:13.232Z,11.58
2023-03-04T00:14:40.525Z,11.57
2023-03-04T00:17:07.590Z,11.55
2023-03-04T00:19:35.425Z,11.59
2023-03-04T00:22:03.951Z,11.60
2023-03-04T00:24:31.010Z,11.58
2023-03-04T00:26:57.746Z,11.55
2023-03-04T00:29:24.497Z,11.53
2023-03-04T00:31:51.398Z,11.49
2023-03-04T00:34:18.270Z,11.50
2023-03-04T00:36:45.190Z,11.50
2023-03-04T00:39:12.450Z,11.46
2023-03-04T00:41:39.500Z,11.48
2023-03-04T00:44:06.730Z,11.45
2023-03-04T00:46:33.757Z,11.40
2023-03-04T00:49:00.464Z,11.39
2023-03-04T00:51:27.467Z,11.39
2023-03-04T00:53:54.316Z,11.35
2023-03-04T00:56:21.115Z,11.34
2023-03-04T00:58:47.749Z,11.34
2023-03-04T01:01:14.464Z,11.33
2023-03-04T01:03:42.478Z,11.32
2023-03-04T01:06:11.312Z,11.28
2023-03-04T01:08:39.489Z,11.29
2023-03-04T01:11:06.522Z,11.29
2023-03-04T01:13:33.545Z,11.28
2023-03-04T01:16:00.485Z,11.26
2023-03-04T01:18:27.437Z,11.24
2023-03-04T01:20:54.520Z,11.22
2023-03-04T01:23:21.506Z,11.19
2023-03-04T01:25:48.428Z,11.18
2023-03-04T01:28:15.354Z,11.20
2023-03-04T01:30:42.049Z,11.16
2023-03-04T01:33:08.871Z,11.19
2023-03-04T01:35:36.059Z,11.17
2023-03-04T01:38:02.833Z,11.17
2023-03-04T01:40:31.127Z,11.14
2023-03-04T01:42:58.003Z,11.13
2023-03-04T01:45:24.961Z,11.14
2023-03-04T01:47:52.630Z,11.12
2023-03-04T01:50:32.656Z,11.10
2023-03-04T01:52:59.773Z,11.11
2023-03-04T01:55:27.458Z,11.08
2023-03-04T01:57:55.782Z,11.09
2023-03-04T02:00:31.852Z,11.08
2023-03-04T02:03:21.079Z,11.08
2023-03-04T02:05:52.640Z,11.07
2023-03-04T02:08:22.072Z,11.03
2023-03-04T02:10:49.444Z,11.01
2023-03-04T02:13:16.583Z,11.03
2023-03-04T02:15:45.469Z,11.00
2023-03-04T02:18:22.800Z,10.99
2023-03-04T02:21:17.973Z,10.97
2023-03-04T02:23:56.546Z,10.98
2023-03-04T02:26:30.935Z,10.93
2023-03-04T02:29:00.221Z,10.96
2023-03-04T02:31:36.731Z,10.95
2023-03-04T02:34:09.820Z,10.95
2023-03-04T02:36:37.394Z,10.95
2023-03-04T02:39:22.575Z,10.92
2023-03-04T02:41:52.930Z,10.92
2023-03-04T02:44:22.507Z,10.92
2023-03-04T02:46:51.145Z,10.88
2023-03-04T02:49:19.474Z,10.85
2023-03-04T02:51:46.825Z,10.86
2023-03-04T02:54:18.107Z,10.85
2023-03-04T02:56:52.933Z,10.88
2023-03-04T02:59:22.952Z,10.88
2023-03-04T03:01:51.200Z,10.86
2023-03-04T03:04:18.938Z,10.83
2023-03-04T03:06:46.325Z,10.84
2023-03-04T03:09:13.239Z,10.81
2023-03-04T03:11:39.891Z,10.81
2023-03-04T03:14:06.713Z,10.78
2023-03-04T03:16:52.774Z,10.79
2023-03-04T03:19:19.492Z,10.80
2023-03-04T03:21:47.036Z,10.77
2023-03-04T03:24:13.718Z,10.77
2023-03-04T03:26:40.940Z,10.75
2023-03-04T03:29:08.103Z,10.76
2023-03-04T03:31:34.837Z,10.74
2023-03-04T03:34:01.680Z,10.76
2023-03-04T03:36:28.560Z,10.77
2023-03-04T03:38:55.298Z,10.74
2023-03-04T03:41:21.983Z,10.73
2023-03-04T03:43:48.623Z,10.72
2023-03-04T03:46:15.557Z,10.70
2023-03-04T03:48:42.396Z,10.70
2023-03-04T03:51:09.484Z,10.72
2023-03-04T03:53:36.320Z,10.70
2023-03-04T03:56:03.159Z,10.69
2023-03-04T03:58:30.044Z,10.69
2023-03-04T04:00:58.470Z,10.67
2023-03-04T04:03:25.797Z,10.64
2023-03-04T04:05:52.612Z,10.66
2023-03-04T04:08:19.454Z,10.66
2023-03-04T04:10:46.372Z,10.66
2023-03-04T04:13:13.513Z,10.64
2023-03-04T04:15:40.360Z,10.62
2023-03-04T04:18:07.585Z,10.63
2023-03-04T04:20:34.748Z,10.62
2023-03-04T04:23:01.558Z,10.62
2023-03-04T04:25:28.322Z,10.60
2023-03-04T04:27:55.028Z,10.62
2023-03-04T04:30:21.604Z,10.60
2023-03-04T04:32:48.210Z,10.56
2023-03-04T04:35:14.964Z,10.59
2023-03-04T04:37:41.773Z,10.58
2023-03-04T04:40:09.300Z,10.55
2023-03-04T04:42:36.032Z,10.53
2023-03-04T04:45:03.461Z,10.54
2023-03-04T04:47:30.140Z,10.54
2023-03-04T04:49:56.825Z,10.54
2023-03-04T04:52:23.656Z,10.55
2023-03-04T04:54:50.251Z,10.54
2023-03-04T04:57:16.851Z,10.53
2023-03-04T04:59:43.511Z,10.53
2023-03-04T05:02:10.167Z,10.51
2023-03-04T05:04:36.850Z,10.49
2023-03-04T05:07:03.767Z,10.50
2023-03-04T05:09:30.313Z,10.52
2023-03-04T05:11:57.059Z,10.50
2023-03-04T05:14:23.871Z,10.52
2023-03-04T05:16:52.900Z,10.49
2023-03-04T05:19:20.766Z,10.47
2023-03-04T05:21:47.659Z,10.46
2023-03-04T05:24:14.494Z,10.48
2023-03-04T05:26:41.619Z,10.46
2023-03-04T05:29:08.380Z,10.45
2023-03-04T05:31:35.204Z,10.47
2023-03-04T05:34:02.144Z,10.45
2023-03-04T05:36:28.852Z,10.43
2023-03-04T05:38:55.605Z,10.44
2023-03-04T05:41:22.902Z,10.43
2023-03-04T05:43:50.806Z,10.43
2023-03-04T05:46:19.244Z,10.42
2023-03-04T05:48:45.921Z,10.42
2023-03-04T05:51:12.688Z,10.40
2023-03-04T05:53:41.158Z,10.40
2023-03-04T05:56:16.106Z,10.39
2023-03-04T05:58:43.858Z,10.40
2023-03-04T06:01:11.173Z,10.36
2023-03-04T06:03:38.088Z,10.39
2023-03-04T06:06:05.422Z,10.35
2023-03-04T06:08:32.403Z,10.35
2023-03-04T06:10:59.303Z,10.36
2023-03-04T06:13:26.124Z,10.39
2023-03-04T06:15:57.531Z,10.41
2023-03-04T06:18:25.578Z,10.44
2023-03-04T06:20:56.782Z,10.40
2023-03-04T06:23:23.485Z,10.38
2023-03-04T06:25:54.519Z,10.36
2023-03-04T06:28:21.424Z,10.35
2023-03-04T06:30:48.016Z,10.34
2023-03-04T06:33:14.720Z,10.30
2023-03-04T06:35:41.679Z,10.30
2023-03-04T06:38:08.485Z,10.30
2023-03-04T06:40:35.369Z,10.27
2023-03-04T06:43:02.082Z,10.29
2023-03-04T06:45:28.794Z,10.28
2023-03-04T06:47:55.497Z,10.27
2023-03-04T06:50:22.391Z,10.28
2023-03-04T06:52:49.402Z,10.27
2023-03-04T06:55:16.215Z,10.26
2023-03-04T06:57:42.860Z,10.23
2023-03-04T07:00:10.114Z,10.22
2023-03-04T07:02:36.809Z,10.24
2023-03-04T07:05:03.749Z,10.21
2023-03-04T07:07:30.488Z,10.22
2023-03-04T07:09:57.307Z,10.22
2023-03-04T07:12:24.043Z,10.21
2023-03-04T07:14:50.792Z,10.22
2023-03-04T07:17:17.569Z,10.19
2023-03-04T07:19:44.715Z,10.20
2023-03-04T07:22:11.614Z,10.18
2023-03-04T07:24:38.408Z,10.17
2023-03-04T07:27:05.197Z,10.17
2023-03-04T07:29:31.968Z,10.17
2023-03-04T07:31:58.620Z,10.16
2023-03-04T07:34:25.370Z,10.16
2023-03-04T07:36:51.998Z,10.16
2023-03-04T07:39:18.666Z,10.15
2023-03-04T07:41:45.415Z,10.14
2023-03-04T07:44:13.550Z,10.14
2023-03-04T07:46:40.502Z,10.11
2023-03-04T07:49:07.864Z,10.12
2023-03-04T07:51:35.786Z,10.11
2023-03-04T07:54:02.575Z,10.10
2023-03-04T07:56:31.906Z,10.12
2023-03-04T07:58:59.147Z,10.11
2023-03-04T08:01:29.495Z,10.11
2023-03-04T08:03:56.353Z,10.09
2023-03-04T08:06:23.949Z,10.10
2023-03-04T08:08:57.139Z,10.07
2023-03-04T08:11:24.042Z,10.07
2023-03-04T08:13:50.815Z,10.05
2023-03-04T08:16:19.105Z,10.05
2023-03-04T08:18:48.491Z,10.04
2023-03-04T08:21:18.691Z,10.05
2023-03-04T08:23:46.467Z,10.03
2023-03-04T08:26:17.682Z,10.03
2023-03-04T08:28:45.815Z,10.02
2023-03-04T08:31:16.382Z,10.04
2023-03-04T08:33:43.162Z,10.04
2023-03-04T08:36:10.395Z,10.01
2023-03-04T08:38:37.485Z,10.02
2023-03-04T08:41:05.066Z,10.02
2023-03-04T08:43:33.211Z,10.00
2023-03-04T08:45:59.985Z,10.01
2023-03-04T08:48:27.156Z,10.00
2023-03-04T08:50:54.044Z,10.00
2023-03-04T08:53:21.245Z,9.99
2023-03-04T08:55:48.695Z,9.98
2023-03-04T08:58:15.632Z,9.98
2023-03-04T09:00:48.437Z,9.98
2023-03-04T09:03:16.847Z,9.97
2023-03-04T09:05:45.128Z,9.97
2023-03-04T09:08:11.903Z,9.97
2023-03-04T09:10:38.712Z,9.96
2023-03-04T09:13:06.392Z,9.98
2023-03-04T09:15:36.641Z,9.98
2023-03-04T09:18:05.176Z,10.05
2023-03-04T09:20:32.710Z,10.09
2023-03-04T09:22:59.628Z,10.13
2023-03-04T09:25:26.467Z,10.19
2023-03-04T09:27:53.748Z,10.32
2023-03-04T09:30:20.710Z,10.44
2023-03-04T09:32:48.030Z,10.52
2023-03-04T09:35:14.855Z,10.65
2023-03-04T09:37:41.944Z,10.75
2023-03-04T09:40:16.219Z,10.92
2023-03-04T09:42:47.831Z,11.03
2023-03-04T09:45:20.177Z,11.12
2023-03-04T09:47:50.854Z,11.22
2023-03-04T09:50:20.168Z,11.28
2023-03-04T09:53:29.012Z,11.34
2023-03-04T09:55:56.163Z,11.47
2023-03-04T09:58:44.752Z,11.51
2023-03-04T10:01:29.176Z,11.64
2023-03-04T10:04:02.978Z,11.62
2023-03-04T10:06:31.800Z,11.68
2023-03-04T10:09:04.428Z,11.74
2023-03-04T10:11:45.332Z,11.82
2023-03-04T10:14:21.125Z,11.87
2023-03-04T10:17:08.834Z,11.86
2023-03-04T10:20:09.929Z,11.92
2023-03-04T10:22:41.138Z,11.97
2023-03-04T10:25:27.720Z,12.02
2023-03-04T10:27:58.225Z,12.02
2023-03-04T10:30:42.866Z,12.02
2023-03-04T10:33:18.822Z,12.06
2023-03-04T10:35:51.099Z,12.08
2023-03-04T10:38:20.538Z,12.14
2023-03-04T10:40:47.526Z,12.15
2023-03-04T10:43:19.422Z,12.17
2023-03-04T10:45:47.229Z,12.16
2023-03-04T10:48:22.986Z,12.19
2023-03-04T10:50:50.080Z,12.21
2023-03-04T10:53:40.738Z,12.25
2023-03-04T10:56:39.953Z,12.24
2023-03-04T10:59:25.586Z,12.27
2023-03-04T11:01:54.613Z,12.30
2023-03-04T11:04:25.606Z,12.30
2023-03-04T11:06:53.047Z,12.30
2023-03-04T11:09:25.529Z,12.28
2023-03-04T11:11:55.500Z,12.35
2023-03-04T11:14:22.077Z,12.40
2023-03-04T11:16:54.802Z,12.41
2023-03-04T11:19:25.415Z,12.45
2023-03-04T11:21:53.205Z,12.44
2023-03-04T11:24:29.239Z,12.47
2023-03-04T11:27:06.583Z,12.53
2023-03-04T11:29:42.272Z,12.53
2023-03-04T11:32:20.711Z,12.52
2023-03-04T11:34:50.306Z,12.54
2023-03-04T11:37:23.425Z,12.54
2023-03-04T11:40:32.069Z,12.58
2023-03-04T11:43:04.779Z,12.58
2023-03-04T11:45:59.489Z,12.60
2023-03-04T11:48:54.146Z,12.64
2023-03-04T11:51:35.970Z,12.67
2023-03-04T11:54:10.525Z,12.70
2023-03-04T11:56:43.630Z,12.71
2023-03-04T11:59:28.419Z,12.76
2023-03-04T12:02:41.335Z,12.69
2023-03-04T12:05:46.990Z,12.73
2023-03-04T12:08:22.636Z,12.72
2023-03-04T12:11:19.651Z,12.75
2023-03-04T12:13:51.508Z,12.77
2023-03-04T12:16:24.441Z,12.79
2023-03-04T12:19:06.154Z,12.83
2023-03-04T12:22:03.956Z,12.79
2023-03-04T12:25:02.062Z,12.81
2023-03-04T12:27:39.907Z,12.83
2023-03-04T12:30:35.765Z,12.89
2023-03-04T12:33:31.874Z,12.86
2023-03-04T12:36:26.461Z,12.90
2023-03-04T12:38:59.048Z,12.88
2023-03-04T12:41:57.717Z,12.91
2023-03-04T12:44:24.638Z,12.92
2023-03-04T12:47:11.966Z,13.00
2023-03-04T12:49:54.449Z,13.11
2023-03-04T12:52:36.207Z,13.21
2023-03-04T12:55:08.899Z,13.24
2023-03-04T12:57:36.507Z,13.31
2023-03-04T13:00:19.836Z,13.45
2023-03-04T13:02:58.523Z,13.53
2023-03-04T13:05:50.595Z,13.56
2023-03-04T13:08:46.918Z,13.54
2023-03-04T13:11:25.996Z,13.44
2023-03-04T13:14:01.484Z,13.42
2023-03-04T13:16:33.328Z,13.48
2023-03-04T13:19:00.273Z,13.47
2023-03-04T13:21:31.686Z,13.50
2023-03-04T13:24:02.395Z,13.48
2023-03-04T13:26:33.580Z,13.51
2023-03-04T13:29:29.736Z,13.45
2023-03-04T13:32:02.818Z,13.48
2023-03-04T13:34:51.962Z,13.49
2023-03-04T13:37:35.317Z,13.48
2023-03-04T13:40:27.330Z,13.51
2023-03-04T13:42:54.074Z,13.49
2023-03-04T13:45:40.186Z,13.47
2023-03-04T13:48:30.308Z,13.49
2023-03-04T13:50:57.801Z,13.50
2023-03-04T13:53:40.476Z,13.46
2023-03-04T13:56:13.825Z,13.51
2023-03-04T13:58:41.710Z,13.47
2023-03-04T14:01:28.647Z,13.53
2023-03-04T14:03:55.747Z,13.58
2023-03-04T14:06:31.012Z,13.49
2023-03-04T14:08:58.350Z,13.55
2023-03-04T14:11:34.914Z,13.55
2023-03-04T14:14:06.426Z,13.50
2023-03-04T14:16:45.155Z,13.51
2023-03-04T14:19:33.426Z,13.56
2023-03-04T14:22:01.149Z,13.59
2023-03-04T14:24:30.768Z,13.52
2023-03-04T14:27:11.527Z,13.54
2023-03-04T14:29:38.401Z,13.57
2023-03-04T14:32:07.004Z,13.55
2023-03-04T14:34:37.721Z,13.58
2023-03-04T14:37:25.984Z,13.62
2023-03-04T14:39:57.530Z,13.63
2023-03-04T14:42:31.721Z,13.58
2023-03-04T14:45:01.005Z,13.59
2023-03-04T14:47:40.783Z,13.67
2023-03-04T14:50:13.832Z,13.67
2023-03-04T14:52:43.462Z,13.70
2023-03-04T14:55:28.254Z,13.69
2023-03-04T14:58:27.143Z,13.70
2023-03-04T15:01:17.039Z,13.72
2023-03-04T15:03:56.762Z,13.76
2023-03-04T15:06:26.900Z,13.80
2023-03-04T15:09:21.165Z,13.77
2023-03-04T15:11:51.128Z,13.87
2023-03-04T15:14:42.841Z,13.84
2023-03-04T15:17:21.453Z,13.85
2023-03-04T15:20:09.525Z,13.88
2023-03-04T15:23:00.163Z,13.88
2023-03-04T15:25:27.833Z,13.92
2023-03-04T15:27:55.029Z,13.89
2023-03-04T15:30:33.572Z,13.91
2023-03-04T15:33:01.192Z,13.94
2023-03-04T15:35:30.985Z,13.95
2023-03-04T15:37:58.593Z,13.93
2023-03-04T15:40:32.693Z,13.97
2023-03-04T15:43:02.256Z,13.99
2023-03-04T15:45:39.182Z,14.03
2023-03-04T15:48:08.203Z,14.01
2023-03-04T15:50:42.122Z,14.07
2023-03-04T15:53:15.118Z,14.03
2023-03-04T15:55:45.190Z,14.03
2023-03-04T15:58:12.632Z,14.06
2023-03-04T16:00:39.249Z,14.01
2023-03-04T16:03:05.886Z,14.04
2023-03-04T16:05:38.116Z,14.06
2023-03-04T16:08:05.196Z,14.11
2023-03-04T16:10:32.697Z,14.20
2023-03-04T16:12:59.711Z,14.26
2023-03-04T16:15:29.372Z,14.33
2023-03-04T16:17:57.576Z,14.36
2023-03-04T16:20:28.922Z,14.39
2023-03-04T16:22:59.663Z,14.45
2023-03-04T16:25:27.187Z,14.48
2023-03-04T16:27:56.643Z,14.53
2023-03-04T16:30:25.198Z,14.52
2023-03-04T16:32:52.238Z,14.48
2023-03-04T16:35:20.766Z,14.49
2023-03-04T16:37:47.531Z,14.44
2023-03-04T16:40:16.903Z,14.39
2023-03-04T16:42:51.219Z,14.40
2023-03-04T16:45:26.257Z,14.40
2023-03-04T16:47:53.605Z,14.40
2023-03-04T16:50:27.042Z,14.44
2023-03-04T16:52:55.311Z,14.37
2023-03-04T16:55:25.469Z,14.55
2023-03-04T16:57:53.162Z,14.68
2023-03-04T17:00:22.536Z,14.75
2023-03-04T17:02:59.805Z,14.76
2023-03-04T17:05:31.569Z,14.75
2023-03-04T17:07:58.656Z,14.81
2023-03-04T17:10:26.030Z,14.79
2023-03-04T17:12:52.933Z,14.84
2023-03-04T17:15:19.792Z,14.85
2023-03-04T17:17:46.692Z,14.91
2023-03-04T17:20:16.654Z,14.92
2023-03-04T17:22:44.244Z,14.95
2023-03-04T17:25:11.729Z,14.92
2023-03-04T17:27:38.729Z,14.77
2023-03-04T17:30:08.919Z,14.73
2023-03-04T17:32:36.617Z,14.77
2023-03-04T17:35:05.583Z,14.77
2023-03-04T17:37:32.285Z,14.78
2023-03-04T17:39:58.935Z,14.73
2023-03-04T17:42:44.235Z,14.68
2023-03-04T17:45:11.429Z,14.73
2023-03-04T17:47:38.210Z,14.72
2023-03-04T17:50:06.929Z,14.71
2023-03-04T17:52:34.355Z,14.71
2023-03-04T17:55:01.126Z,14.66
2023-03-04T17:57:27.856Z,14.63
2023-03-04T17:59:56.123Z,14.69
2023-03-04T18:02:23.238Z,14.67
2023-03-04T18:04:50.808Z,14.71
2023-03-04T18:07:17.673Z,14.67
2023-03-04T18:09:44.525Z,14.64
2023-03-04T18:12:11.433Z,14.66
2023-03-04T18:14:38.220Z,14.61
2023-03-04T18:17:23.600Z,14.58
2023-03-04T18:19:50.244Z,14.64
2023-03-04T18:22:17.316Z,14.59
2023-03-04T18:24:44.083Z,14.57
2023-03-04T18:27:10.890Z,14.64
2023-03-04T18:29:37.598Z,14.54
2023-03-04T18:32:04.591Z,14.55
2023-03-04T18:34:31.417Z,14.58
2023-03-04T18:36:58.151Z,14.54
2023-03-04T18:39:24.966Z,14.54
2023-03-04T18:41:51.819Z,14.54
2023-03-04T18:44:18.792Z,14.55
2023-03-04T18:46:48.518Z,14.64
2023-03-04T18:49:15.495Z,14.60
2023-03-04T18:51:42.293Z,14.60
2023-03-04T18:54:09.054Z,14.56
2023-03-04T18:56:40.502Z,14.56
2023-03-04T18:59:21.601Z,14.50
2023-03-04T19:01:50.396Z,14.52
2023-03-04T19:04:20.251Z,14.52
2023-03-04T19:06:47.088Z,14.52
2023-03-04T19:09:13.980Z,14.53
2023-03-04T19:11:40.709Z,14.55
2023-03-04T19:14:07.488Z,14.48
2023-03-04T19:16:34.187Z,14.56
2023-03-04T19:19:00.932Z,14.54
2023-03-04T19:21:27.566Z,14.49
2023-03-04T19:23:54.251Z,14.52
2023-03-04T19:26:21.087Z,14.58
2023-03-04T19:28:47.754Z,14.54
2023-03-04T19:31:14.486Z,14.54
2023-03-04T19:33:41.585Z,14.53
2023-03-04T19:36:09.469Z,14.52
2023-03-04T19:38:36.700Z,14.54
2023-03-04T19:41:15.510Z,14.54
2023-03-04T19:43:42.911Z,14.56
2023-03-04T19:46:10.608Z,14.52
2023-03-04T19:48:38.780Z,14.60
2023-03-04T19:51:14.685Z,14.51
2023-03-04T19:53:41.776Z,14.55
2023-03-04T19:56:08.556Z,14.53
2023-03-04T19:58:35.302Z,14.62
2023-03-04T20:01:02.024Z,14.63
2023-03-04T20:03:28.747Z,14.58
2023-03-04T20:06:05.960Z,14.57
2023-03-04T20:08:32.760Z,14.58
2023-03-04T20:10:59.547Z,14.56
2023-03-04T20:13:26.406Z,14.63
2023-03-04T20:15:53.149Z,14.56
2023-03-04T20:18:19.791Z,14.62
2023-03-04T20:20:48.814Z,14.60
2023-03-04T20:23:20.193Z,14.59
2023-03-04T20:25:47.408Z,14.65
2023-03-04T20:28:14.184Z,14.63
2023-03-04T20:30:41.104Z,14.62
2023-03-04T20:33:07.883Z,14.65
2023-03-04T20:35:34.737Z,14.70
2023-03-04T20:38:02.301Z,14.66
2023-03-04T20:40:29.231Z,14.72
2023-03-04T20:42:56.026Z,14.66
2023-03-04T20:45:24.737Z,14.58
2023-03-04T20:47:51.498Z,14.63
2023-03-04T20:50:18.819Z,14.63
2023-03-04T20:52:46.152Z,14.66
2023-03-04T20:55:12.877Z,14.67
2023-03-04T20:57:39.793Z,14.62
2023-03-04T21:00:08.482Z,14.72
2023-03-04T21:02:35.368Z,14.68
2023-03-04T21:05:02.347Z,14.69
2023-03-04T21:07:29.199Z,14.69
2023-03-04T21:09:55.997Z,14.69
2023-03-04T21:12:22.698Z,14.67
2023-03-04T21:14:49.496Z,14.68
2023-03-04T21:17:16.198Z,14.69
2023-03-04T21:19:45.641Z,14.73
2023-03-04T21:22:17.477Z,14.69
2023-03-04T21:24:45.740Z,14.73
2023-03-04T21:27:13.586Z,14.74
2023-03-04T21:29:40.306Z,14.79
2023-03-04T21:32:23.667Z,14.71
2023-03-04T21:34:52.799Z,14.70
2023-03-04T21:37:21.417Z,14.87
2023-03-04T21:39:48.558Z,15.00
2023-03-04T21:42:15.318Z,15.13
2023-03-04T21:44:50.927Z,15.14
2023-03-04T21:47:20.010Z,15.16
2023-03-04T21:49:47.176Z,15.16
2023-03-04T21:52:14.086Z,15.15
2023-03-04T21:54:40.840Z,14.84
2023-03-04T21:57:07.638Z,14.71
2023-03-04T21:59:34.352Z,14.58
2023-03-04T22:02:02.194Z,14.48
2023-03-04T22:04:28.995Z,14.37
2023-03-04T22:06:55.715Z,14.29
2023-03-04T22:09:22.356Z,14.20
2023-03-04T22:11:49.111Z,14.14
2023-03-04T22:14:15.869Z,14.09
2023-03-04T22:16:59.017Z,14.03
2023-03-04T22:19:30.243Z,14.00
2023-03-04T22:21:57.420Z,13.97
2023-03-04T22:24:24.303Z,13.92
2023-03-04T22:26:51.125Z,13.89
2023-03-04T22:29:18.312Z,13.85
2023-03-04T22:31:45.987Z,13.81
2023-03-04T22:34:14.925Z,13.76
2023-03-04T22:36:44.458Z,13.72
2023-03-04T22:39:12.538Z,13.70
2023-03-04T22:41:39.639Z,13.68
2023-03-04T22:44:07.582Z,13.63
2023-03-04T22:46:38.154Z,13.60
2023-03-04T22:49:10.307Z,13.54
2023-03-04T22:51:38.272Z,13.53
2023-03-04T22:54:05.227Z,13.51
2023-03-04T22:56:33.148Z,13.47
2023-03-04T22:58:59.935Z,13.43
2023-03-04T23:01:26.553Z,13.41
2023-03-04T23:03:53.340Z,13.37
2023-03-04T23:06:25.193Z,13.37
2023-03-04T23:08:52.650Z,13.31
2023-03-04T23:11:26.537Z,13.28
2023-03-04T23:13:54.698Z,13.25
2023-03-04T23:16:23.041Z,13.22
2023-03-04T23:18:49.862Z,13.21
2023-03-04T23:21:20.217Z,13.17
2023-03-04T23:23:48.118Z,13.16
2023-03-04T23:26:24.120Z,13.12
2023-03-04T23:28:51.360Z,13.11
2023-03-04T23:31:18.933Z,13.07
2023-03-04T23:33:47.901Z,13.06
2023-03-04T23:36:18.383Z,13.04
2023-03-04T23:38:47.843Z,13.02
2023-03-04T23:41:15.475Z,12.97
2023-03-04T23:43:42.106Z,12.98
2023-03-04T23:46:11.976Z,12.94
2023-03-04T23:48:40.065Z,12.92
2023-03-04T23:51:07.138Z,12.90
2023-03-04T23:53:34.574Z,12.84
2023-03-04T23:56:01.450Z,12.84
2023-03-04T23:58:28.267Z,12.81
